Time;durP1;ratioP1;P1;durP2;ratioP2;P2;SDS_P1;SDS_P2;PMS_P1;PMS_P2;Temp;Humidity;BMP_temperature;BMP_pressure;BME280_temperature;BME280_humidity;BME280_pressure;Samples;Min_cycle;Max_cycle;Signal;HPM_P1;HPM_P2
2024/03/11 00:01:12;;;;;;;6.10;5.50;;;11.60;99.90;;;;;;4937985;28;20464;-47
2024/03/11 00:03:41;;;;;;;6.83;5.60;;;11.70;99.90;;;;;;4973380;28;20509;-47
2024/03/11 00:06:09;;;;;;;6.17;5.57;;;11.60;99.90;;;;;;4956657;28;20474;-48
2024/03/11 00:08:38;;;;;;;5.43;4.77;;;11.70;99.90;;;;;;4972020;28;20461;-47
2024/03/11 00:11:06;;;;;;;4.77;4.27;;;11.70;99.90;;;;;;4972364;28;20502;-47
2024/03/11 00:13:34;;;;;;;7.03;5.83;;;11.70;99.90;;;;;;4971359;28;20811;-47
2024/03/11 00:16:06;;;;;;;5.83;5.03;;;11.70;99.90;;;;;;4971931;28;20536;-47
2024/03/11 00:18:34;;;;;;;5.67;5.17;;;11.70;99.90;;;;;;4963585;28;20996;-47
2024/03/11 00:21:03;;;;;;;5.37;4.87;;;11.70;99.90;;;;;;4975816;28;20488;-46
2024/03/11 00:23:31;;;;;;;4.67;3.87;;;11.70;99.90;;;;;;4964551;28;20438;-47
2024/03/11 00:25:59;;;;;;;5.03;4.53;;;11.70;99.90;;;;;;4969201;28;20473;-48
2024/03/11 00:28:29;;;;;;;7.07;5.60;;;11.70;99.90;;;;;;4973844;28;20839;-49
2024/03/11 00:30:57;;;;;;;6.93;6.10;;;11.70;99.90;;;;;;4975698;28;20469;-48
2024/03/11 00:33:28;;;;;;;8.50;6.90;;;11.70;99.90;;;;;;4961188;28;20455;-48
2024/03/11 00:35:56;;;;;;;5.40;4.83;;;11.70;99.90;;;;;;4968891;28;20541;-47
2024/03/11 00:38:24;;;;;;;6.17;4.83;;;11.70;99.90;;;;;;4942528;28;20503;-47
2024/03/11 00:40:52;;;;;;;7.17;5.20;;;11.60;99.90;;;;;;4954324;28;20473;-48
2024/03/11 00:43:21;;;;;;;6.10;5.07;;;11.60;99.90;;;;;;4970956;28;20458;-48
2024/03/11 00:45:51;;;;;;;7.33;6.20;;;11.60;99.90;;;;;;4971221;28;20466;-47
2024/03/11 00:48:20;;;;;;;5.23;4.73;;;11.70;99.90;;;;;;4960918;28;20451;-47
2024/03/11 00:50:50;;;;;;;7.87;6.40;;;11.70;99.90;;;;;;4971848;28;20796;-47
2024/03/11 00:53:18;;;;;;;4.93;4.40;;;11.70;99.90;;;;;;4958397;28;20450;-47
2024/03/11 00:55:48;;;;;;;5.63;5.03;;;11.60;99.90;;;;;;4964587;28;20523;-47
2024/03/11 00:58:17;;;;;;;4.73;4.10;;;11.70;99.90;;;;;;4963772;28;20426;-48
2024/03/11 01:00:45;;;;;;;5.00;4.50;;;11.70;99.90;;;;;;4970547;28;20516;-47
2024/03/11 01:03:14;;;;;;;6.83;5.70;;;11.60;99.90;;;;;;4969441;28;20675;-46
2024/03/11 01:05:42;;;;;;;5.37;4.87;;;11.70;99.90;;;;;;4967755;28;20460;-48
2024/03/11 01:08:11;;;;;;;5.00;4.17;;;11.70;99.90;;;;;;4969046;28;20434;-47
2024/03/11 01:10:40;;;;;;;4.83;4.20;;;11.70;99.90;;;;;;4950403;28;20468;-47
2024/03/11 01:13:08;;;;;;;5.93;5.33;;;11.70;99.90;;;;;;4971270;28;20479;-48
2024/03/11 01:15:36;;;;;;;5.17;4.33;;;11.60;99.90;;;;;;4971658;28;20548;-49
2024/03/11 01:18:05;;;;;;;5.07;4.37;;;11.60;99.90;;;;;;4962681;28;20461;-49
2024/03/11 01:20:34;;;;;;;5.03;3.87;;;11.70;99.90;;;;;;4972994;28;20495;-47
2024/03/11 01:23:05;;;;;;;5.50;4.07;;;11.70;99.90;;;;;;4972197;28;20439;-47
2024/03/11 01:25:34;;;;;;;5.00;4.57;;;11.70;99.90;;;;;;4963734;28;20473;-48
2024/03/11 01:28:02;;;;;;;4.83;4.20;;;11.70;99.90;;;;;;4971326;28;20945;-47
2024/03/11 01:30:31;;;;;;;5.47;4.37;;;11.70;99.90;;;;;;4960965;28;20853;-48
2024/03/11 01:32:59;;;;;;;4.70;4.00;;;11.70;99.90;;;;;;4973966;28;20481;-47
2024/03/11 01:35:28;;;;;;;4.47;3.30;;;11.70;99.90;;;;;;4950084;28;20466;-48
2024/03/11 01:37:56;;;;;;;4.37;3.90;;;11.70;99.90;;;;;;4973779;28;20501;-48
2024/03/11 01:40:27;;;;;;;4.37;3.90;;;11.70;99.90;;;;;;4965459;28;20478;-48
2024/03/11 01:42:58;;;;;;;5.10;4.40;;;11.60;99.90;;;;;;4976598;28;20526;-47
2024/03/11 01:45:27;;;;;;;5.23;4.17;;;11.60;99.90;;;;;;4974421;28;20549;-49
2024/03/11 01:47:56;;;;;;;6.70;3.97;;;11.60;99.90;;;;;;4971030;28;20485;-49
2024/03/11 01:50:26;;;;;;;5.03;4.37;;;11.70;99.90;;;;;;4972864;28;20453;-48
2024/03/11 01:52:56;;;;;;;4.73;3.87;;;11.60;99.90;;;;;;4971994;28;21032;-47
2024/03/11 01:55:27;;;;;;;5.10;4.43;;;11.60;99.90;;;;;;4972535;28;20481;-48
2024/03/11 01:57:59;;;;;;;4.93;4.33;;;11.60;99.90;;;;;;4954484;28;20465;-47
2024/03/11 02:00:28;;;;;;;4.90;4.40;;;11.60;99.90;;;;;;4973958;28;20880;-48
2024/03/11 02:02:56;;;;;;;5.53;4.80;;;11.70;99.90;;;;;;4969199;28;20447;-47
2024/03/11 02:05:27;;;;;;;5.07;3.87;;;11.60;99.90;;;;;;4973792;28;20494;-48
2024/03/11 02:07:59;;;;;;;5.80;4.30;;;11.60;99.90;;;;;;4967914;28;20437;-48
2024/03/11 02:10:28;;;;;;;4.63;3.50;;;11.60;99.90;;;;;;4965515;28;20497;-47
2024/03/11 02:12:58;;;;;;;4.70;4.07;;;11.70;99.90;;;;;;4976136;28;20435;-47
2024/03/11 02:15:27;;;;;;;4.03;3.60;;;11.70;99.90;;;;;;4969949;28;20988;-47
2024/03/11 02:17:55;;;;;;;4.57;3.70;;;11.60;99.90;;;;;;4971515;28;20438;-47
2024/03/11 02:20:26;;;;;;;4.17;3.77;;;11.60;99.90;;;;;;4968909;28;20474;-46
2024/03/11 02:22:57;;;;;;;4.17;3.77;;;11.60;99.90;;;;;;4969733;28;20443;-47
2024/03/11 02:25:28;;;;;;;4.50;4.10;;;11.60;99.90;;;;;;4972809;28;20481;-47
2024/03/11 02:28:00;;;;;;;3.67;3.37;;;11.60;99.90;;;;;;4980256;28;20443;-46
2024/03/11 02:30:28;;;;;;;4.00;3.47;;;11.60;99.90;;;;;;4959683;28;20453;-47
2024/03/11 02:32:56;;;;;;;4.17;3.60;;;11.60;99.90;;;;;;4966723;28;20469;-47
2024/03/11 02:35:27;;;;;;;4.47;3.93;;;11.60;99.90;;;;;;4975620;28;20831;-48
2024/03/11 02:37:55;;;;;;;4.10;3.67;;;11.60;99.90;;;;;;4975810;28;20438;-46
2024/03/11 02:40:26;;;;;;;4.43;4.03;;;11.60;99.90;;;;;;4968637;28;20469;-47
2024/03/11 02:42:57;;;;;;;4.60;3.67;;;11.60;99.90;;;;;;4947993;28;20441;-47
2024/03/11 02:45:30;;;;;;;3.50;3.20;;;11.60;99.90;;;;;;4966224;28;20465;-49
2024/03/11 02:47:58;;;;;;;4.03;3.10;;;11.60;99.90;;;;;;4971852;28;20430;-49
2024/03/11 02:50:26;;;;;;;4.50;3.67;;;11.60;99.90;;;;;;4972804;28;20456;-47
2024/03/11 02:52:54;;;;;;;4.73;4.20;;;11.60;99.90;;;;;;4974409;28;20448;-47
2024/03/11 02:55:22;;;;;;;4.30;3.13;;;11.60;99.90;;;;;;4975099;28;20477;-47
2024/03/11 02:57:51;;;;;;;4.23;3.70;;;11.60;99.90;;;;;;4973293;28;20431;-47
2024/03/11 03:00:21;;;;;;;4.03;3.63;;;11.60;99.90;;;;;;4965876;28;20463;-47
2024/03/11 03:02:50;;;;;;;4.47;3.07;;;11.60;99.90;;;;;;4974800;28;20971;-49
2024/03/11 03:05:19;;;;;;;5.00;3.47;;;11.60;99.90;;;;;;4966732;28;20466;-46
2024/03/11 03:07:48;;;;;;;4.00;3.40;;;11.60;99.90;;;;;;4971431;28;21007;-47
2024/03/11 03:10:17;;;;;;;3.40;2.67;;;11.60;99.90;;;;;;4972266;28;21030;-49
2024/03/11 03:12:46;;;;;;;4.17;3.23;;;11.60;99.90;;;;;;4969544;28;20453;-47
2024/03/11 03:15:14;;;;;;;3.60;3.27;;;11.60;99.90;;;;;;4972485;28;20465;-49
2024/03/11 03:17:43;;;;;;;3.73;3.20;;;11.60;99.90;;;;;;4972878;28;20507;-48
2024/03/11 03:20:12;;;;;;;3.80;2.80;;;11.60;99.90;;;;;;4955585;28;20839;-47
2024/03/11 03:22:41;;;;;;;3.83;3.23;;;11.60;99.90;;;;;;4961784;28;20727;-47
2024/03/11 03:25:10;;;;;;;3.77;3.40;;;11.60;99.90;;;;;;4971590;28;20454;-47
2024/03/11 03:27:38;;;;;;;2.83;2.47;;;11.60;99.90;;;;;;4963198;28;20802;-47
2024/03/11 03:30:07;;;;;;;4.47;2.90;;;11.60;99.90;;;;;;4971886;28;20754;-47
2024/03/11 03:32:37;;;;;;;3.13;2.83;;;11.60;99.90;;;;;;4973818;28;20477;-46
2024/03/11 03:35:08;;;;;;;3.70;3.27;;;11.60;99.90;;;;;;4967713;28;20478;-50
2024/03/11 03:37:36;;;;;;;4.63;3.43;;;11.60;99.90;;;;;;4972858;28;20434;-47
2024/03/11 03:40:15;;;;;;;2.60;2.40;;;11.60;99.90;;;;;;4969032;28;20916;-47
2024/03/11 03:42:45;;;;;;;3.03;2.73;;;11.60;99.90;;;;;;4968898;28;20493;-49
2024/03/11 03:45:14;;;;;;;3.10;2.80;;;11.60;99.90;;;;;;4966248;28;20504;-46
2024/03/11 03:47:42;;;;;;;3.60;3.30;;;11.60;99.90;;;;;;4970616;28;20469;-47
2024/03/11 03:50:12;;;;;;;3.17;2.87;;;11.60;99.90;;;;;;4963615;28;20449;-47
2024/03/11 03:52:42;;;;;;;4.67;2.73;;;11.60;99.90;;;;;;4969957;28;20489;-48
2024/03/11 03:55:11;;;;;;;3.30;3.00;;;11.60;99.90;;;;;;4970465;28;20948;-47
2024/03/11 03:57:39;;;;;;;3.20;2.73;;;11.60;99.90;;;;;;4963311;28;20438;-48
2024/03/11 04:00:15;;;;;;;3.33;2.40;;;11.60;99.90;;;;;;4971813;28;20568;-50
2024/03/11 04:02:44;;;;;;;3.83;3.20;;;11.60;99.90;;;;;;4968405;28;20531;-46
2024/03/11 04:05:14;;;;;;;3.23;2.90;;;11.60;99.90;;;;;;4969464;28;20483;-47
2024/03/11 04:07:43;;;;;;;3.67;3.37;;;11.60;99.90;;;;;;4969462;28;20466;-47
2024/03/11 04:10:13;;;;;;;3.27;2.97;;;11.60;99.90;;;;;;4970995;28;20520;-47
2024/03/11 04:12:44;;;;;;;3.00;2.63;;;11.60;99.90;;;;;;4969915;28;20483;-47
2024/03/11 04:15:16;;;;;;;3.67;2.70;;;11.60;99.90;;;;;;4966453;28;20527;-48
2024/03/11 04:17:44;;;;;;;2.93;2.73;;;11.60;99.90;;;;;;4972108;28;20483;-46
2024/03/11 04:20:15;;;;;;;3.20;2.90;;;11.50;99.90;;;;;;4974387;28;20434;-47
2024/03/11 04:22:44;;;;;;;3.07;2.50;;;11.50;99.90;;;;;;4969574;28;20482;-50
2024/03/11 04:25:16;;;;;;;4.53;3.10;;;11.60;99.90;;;;;;4969550;28;20524;-47
2024/03/11 04:27:46;;;;;;;3.30;2.43;;;11.50;99.90;;;;;;4964580;28;20536;-47
2024/03/11 04:30:15;;;;;;;3.20;2.50;;;11.60;99.90;;;;;;4964342;28;20791;-47
2024/03/11 04:32:51;;;;;;;2.97;2.50;;;11.50;99.90;;;;;;4967267;28;20536;-47
2024/03/11 04:35:24;;;;;;;3.00;2.50;;;11.50;99.90;;;;;;4961396;28;20471;-47
2024/03/11 04:37:53;;;;;;;2.70;2.20;;;11.50;99.90;;;;;;4969827;28;20477;-47
2024/03/11 04:40:24;;;;;;;2.83;2.60;;;11.50;99.90;;;;;;4953241;28;20449;-48
2024/03/11 04:42:52;;;;;;;3.00;2.67;;;11.50;99.90;;;;;;4964390;28;20481;-47
2024/03/11 04:45:20;;;;;;;3.17;2.80;;;11.50;99.90;;;;;;4971969;28;20513;-48
2024/03/11 04:47:48;;;;;;;3.30;2.73;;;11.50;99.90;;;;;;4969950;28;20446;-47
2024/03/11 04:50:24;;;;;;;3.83;3.23;;;11.50;99.90;;;;;;4971476;28;20442;-48
2024/03/11 04:52:56;;;;;;;3.00;2.70;;;11.50;99.90;;;;;;4964892;28;20440;-46
2024/03/11 04:55:24;;;;;;;2.90;2.53;;;11.50;99.90;;;;;;4971063;28;20480;-47
2024/03/11 04:57:53;;;;;;;3.47;2.70;;;11.50;99.90;;;;;;4971020;28;20491;-46
2024/03/11 05:00:26;;;;;;;2.67;2.43;;;11.50;99.90;;;;;;4964845;28;20434;-47
2024/03/11 05:02:54;;;;;;;3.00;2.17;;;11.50;99.90;;;;;;4971684;28;20454;-48
2024/03/11 05:05:22;;;;;;;3.07;2.63;;;11.50;99.90;;;;;;4966456;28;20478;-46
2024/03/11 05:07:50;;;;;;;4.13;2.50;;;11.50;99.90;;;;;;4966409;28;20512;-50
2024/03/11 05:10:20;;;;;;;2.30;2.03;;;11.50;99.90;;;;;;4972356;28;20439;-46
2024/03/11 05:12:49;;;;;;;4.10;3.27;;;11.50;99.90;;;;;;4966543;28;20440;-47
2024/03/11 05:15:18;;;;;;;3.63;2.80;;;11.50;99.90;;;;;;4975167;28;20515;-47
2024/03/11 05:17:46;;;;;;;2.87;2.50;;;11.50;99.90;;;;;;4960272;28;20446;-47
2024/03/11 05:20:15;;;;;;;3.20;2.43;;;11.50;99.90;;;;;;4964440;28;20476;-46
2024/03/11 05:22:45;;;;;;;3.10;2.53;;;11.50;99.90;;;;;;4965980;28;20648;-46
2024/03/11 05:25:14;;;;;;;2.37;2.17;;;11.50;99.90;;;;;;4955772;28;20489;-46
2024/03/11 05:27:45;;;;;;;2.90;2.40;;;11.50;99.90;;;;;;4972483;28;20519;-47
2024/03/11 05:30:13;;;;;;;3.20;2.50;;;11.50;99.90;;;;;;4973776;28;20427;-47
2024/03/11 05:32:41;;;;;;;3.00;2.50;;;11.50;99.90;;;;;;4970172;28;20447;-47
2024/03/11 05:35:11;;;;;;;3.40;2.67;;;11.50;99.90;;;;;;4973547;28;20452;-49
2024/03/11 05:37:39;;;;;;;3.20;2.60;;;11.50;99.90;;;;;;4971447;28;20828;-48
2024/03/11 05:40:11;;;;;;;3.30;2.30;;;11.50;99.90;;;;;;4972483;28;20560;-47
2024/03/11 05:42:41;;;;;;;2.67;2.40;;;11.50;99.90;;;;;;4966226;28;20502;-46
2024/03/11 05:45:11;;;;;;;3.30;2.30;;;11.50;99.90;;;;;;4956431;28;20462;-50
2024/03/11 05:47:41;;;;;;;3.30;2.00;;;11.50;99.90;;;;;;4973799;28;20430;-48
2024/03/11 05:50:12;;;;;;;3.43;3.13;;;11.50;99.90;;;;;;4972628;28;20438;-47
2024/03/11 05:52:44;;;;;;;5.50;2.77;;;11.50;99.90;;;;;;4947035;28;20430;-47
2024/03/11 05:55:13;;;;;;;2.10;1.90;;;11.50;99.90;;;;;;4964352;28;20501;-46
2024/03/11 06:02:01;;;;;;;2.93;2.63;;;11.40;99.90;;;;;;4972228;28;21033;-47
2024/03/11 06:04:29;;;;;;;2.60;2.03;;;11.50;99.90;;;;;;4973292;28;21031;-47
2024/03/11 06:06:57;;;;;;;2.70;2.07;;;11.50;99.90;;;;;;4971780;28;20463;-48
2024/03/11 06:09:25;;;;;;;2.83;2.30;;;11.50;99.90;;;;;;4969835;28;20429;-47
2024/03/11 06:11:54;;;;;;;2.70;2.07;;;11.50;99.90;;;;;;4965229;28;20459;-47
2024/03/11 06:14:22;;;;;;;2.63;2.20;;;11.50;99.90;;;;;;4966973;28;20512;-47
2024/03/11 06:16:51;;;;;;;2.43;2.03;;;11.50;99.90;;;;;;4973099;28;20450;-49
2024/03/11 06:19:21;;;;;;;2.60;2.17;;;11.50;99.90;;;;;;4969460;28;20432;-47
2024/03/11 06:21:53;;;;;;;3.00;2.37;;;11.50;99.90;;;;;;4969015;28;20490;-47
2024/03/11 06:24:22;;;;;;;2.77;2.30;;;11.50;99.90;;;;;;4980253;28;20476;-47
2024/03/11 06:26:52;;;;;;;3.03;2.30;;;11.40;99.90;;;;;;4966492;28;20866;-46
2024/03/11 06:29:20;;;;;;;3.23;2.50;;;11.40;99.90;;;;;;4969856;28;20438;-46
2024/03/11 06:31:49;;;;;;;2.57;2.17;;;11.40;99.90;;;;;;4967413;28;20955;-47
2024/03/11 06:34:21;;;;;;;2.93;1.87;;;11.40;99.90;;;;;;4970341;28;20963;-46
2024/03/11 06:36:50;;;;;;;3.07;2.27;;;11.40;99.90;;;;;;4970363;28;20469;-46
2024/03/11 06:39:19;;;;;;;2.53;2.33;;;11.40;99.90;;;;;;4955569;28;20470;-47
2024/03/11 06:41:47;;;;;;;3.27;2.23;;;11.40;99.90;;;;;;4976429;28;20452;-49
2024/03/11 06:44:17;;;;;;;2.87;2.40;;;11.40;99.90;;;;;;4972570;28;20503;-49
2024/03/11 06:46:57;;;;;;;2.63;2.30;;;11.40;99.90;;;;;;4961932;28;20450;-47
2024/03/11 06:49:28;;;;;;;2.50;2.30;;;11.40;99.90;;;;;;4960910;28;20448;-47
2024/03/11 06:51:58;;;;;;;2.93;2.63;;;11.40;99.90;;;;;;4979906;28;20997;-47
2024/03/11 06:54:26;;;;;;;2.60;2.30;;;11.40;99.90;;;;;;4966874;28;20939;-47
2024/03/11 06:56:54;;;;;;;2.60;2.40;;;11.40;99.90;;;;;;4972229;28;20465;-47
2024/03/11 06:59:22;;;;;;;3.13;2.83;;;11.40;99.90;;;;;;4973005;28;20425;-47
2024/03/11 07:01:54;;;;;;;3.07;2.20;;;11.40;99.90;;;;;;4979222;28;20951;-47
2024/03/11 07:04:22;;;;;;;3.07;2.40;;;11.40;99.90;;;;;;4966019;28;20481;-48
2024/03/11 07:06:50;;;;;;;2.90;2.47;;;11.40;99.90;;;;;;4969451;28;20523;-47
2024/03/11 07:09:20;;;;;;;3.07;2.50;;;11.40;99.90;;;;;;4971610;28;20440;-47
2024/03/11 07:11:48;;;;;;;3.27;2.43;;;11.40;99.90;;;;;;4969918;28;20976;-47
2024/03/11 07:14:17;;;;;;;2.70;1.90;;;11.40;99.90;;;;;;4964638;28;20434;-47
2024/03/11 07:16:45;;;;;;;2.50;2.00;;;11.40;99.90;;;;;;4963832;28;20514;-48
2024/03/11 07:19:14;;;;;;;3.93;2.73;;;11.40;99.90;;;;;;4963764;28;20438;-47
2024/03/11 07:21:43;;;;;;;2.73;2.30;;;11.40;99.90;;;;;;4965256;28;20868;-47
2024/03/11 07:24:11;;;;;;;3.97;2.90;;;11.40;99.90;;;;;;4972507;28;20572;-47
2024/03/11 07:26:40;;;;;;;3.00;2.60;;;11.40;99.90;;;;;;4971483;28;20472;-47
2024/03/11 07:29:08;;;;;;;2.47;1.90;;;11.40;99.90;;;;;;4964697;28;20442;-48
2024/03/11 07:31:38;;;;;;;2.37;1.77;;;11.40;99.90;;;;;;4960055;28;20436;-47
2024/03/11 07:34:06;;;;;;;2.40;2.03;;;11.30;99.90;;;;;;4950105;28;20529;-47
2024/03/11 07:36:36;;;;;;;2.83;1.90;;;11.40;99.90;;;;;;4965613;28;20470;-46
2024/03/11 07:39:05;;;;;;;2.70;2.07;;;11.30;99.90;;;;;;4970249;28;20510;-47
2024/03/11 07:41:34;;;;;;;2.80;2.23;;;11.40;99.90;;;;;;4965655;28;20885;-47
2024/03/11 07:44:03;;;;;;;2.37;1.83;;;11.30;99.90;;;;;;4970639;28;20541;-46
2024/03/11 07:46:34;;;;;;;2.50;2.17;;;11.40;99.90;;;;;;4953667;28;20446;-47
2024/03/11 07:49:02;;;;;;;1.90;1.50;;;11.40;99.90;;;;;;4977335;28;20445;-46
2024/03/11 07:51:30;;;;;;;2.43;2.03;;;11.40;99.90;;;;;;4970901;28;20448;-47
2024/03/11 07:53:59;;;;;;;2.07;1.83;;;11.30;99.90;;;;;;4973767;28;20559;-47
2024/03/11 07:56:28;;;;;;;2.10;1.63;;;11.40;99.90;;;;;;4958034;28;20610;-47
2024/03/11 07:58:57;;;;;;;3.43;2.20;;;11.40;99.90;;;;;;4968394;28;20755;-47
2024/03/11 08:01:27;;;;;;;2.40;1.93;;;11.30;99.90;;;;;;4970599;28;20447;-47
2024/03/11 08:03:55;;;;;;;2.50;1.80;;;11.30;99.90;;;;;;4965874;28;20494;-51
2024/03/11 08:06:24;;;;;;;2.63;2.00;;;11.40;99.90;;;;;;4969797;28;20591;-46
2024/03/11 08:08:52;;;;;;;2.30;1.60;;;11.30;99.90;;;;;;4959622;28;20448;-47
2024/03/11 08:11:21;;;;;;;2.30;1.90;;;11.40;99.90;;;;;;4966812;28;20462;-47
2024/03/11 08:13:51;;;;;;;2.47;2.17;;;11.30;99.90;;;;;;4960849;28;20434;-47
2024/03/11 08:16:21;;;;;;;2.27;2.07;;;11.30;99.90;;;;;;4967641;28;20987;-47
2024/03/11 08:18:51;;;;;;;2.07;1.50;;;11.30;99.90;;;;;;4955342;28;20808;-47
2024/03/11 08:21:20;;;;;;;2.50;1.97;;;11.30;99.90;;;;;;4956531;28;20678;-49
2024/03/11 08:23:48;;;;;;;2.73;1.50;;;11.30;99.90;;;;;;4955265;28;20478;-48
2024/03/11 08:26:17;;;;;;;2.03;1.57;;;11.30;99.90;;;;;;4960092;28;20473;-47
2024/03/11 08:28:45;;;;;;;2.40;1.87;;;11.30;99.90;;;;;;4963083;28;20479;-46
2024/03/11 08:31:13;;;;;;;2.60;1.83;;;11.30;99.90;;;;;;4970130;28;20804;-46
2024/03/11 08:33:41;;;;;;;2.97;2.00;;;11.30;99.90;;;;;;4967549;28;20436;-49
2024/03/11 08:36:11;;;;;;;2.67;2.00;;;11.30;99.90;;;;;;4964082;28;20560;-47
2024/03/11 08:38:39;;;;;;;1.93;1.57;;;11.30;99.90;;;;;;4955836;28;20442;-47
2024/03/11 08:41:08;;;;;;;2.83;2.00;;;11.30;99.90;;;;;;4960519;28;20461;-46
2024/03/11 08:43:38;;;;;;;2.70;1.77;;;11.30;99.90;;;;;;4973372;28;21002;-47
2024/03/11 08:46:11;;;;;;;2.40;1.60;;;11.30;99.90;;;;;;4968481;28;20454;-47
2024/03/11 08:48:41;;;;;;;1.93;1.70;;;11.30;99.90;;;;;;4968836;28;20464;-48
2024/03/11 08:51:11;;;;;;;2.47;2.07;;;11.30;99.90;;;;;;4967749;28;20459;-49
2024/03/11 08:53:41;;;;;;;2.50;1.80;;;11.30;99.90;;;;;;4964848;28;20442;-46
2024/03/11 08:56:10;;;;;;;1.80;1.43;;;11.30;99.90;;;;;;4967965;28;20477;-47
2024/03/11 08:58:40;;;;;;;1.83;1.43;;;11.30;99.90;;;;;;4964191;28;20937;-46
2024/03/11 09:01:09;;;;;;;2.17;1.77;;;11.30;99.90;;;;;;4967428;28;20452;-47
2024/03/11 09:03:38;;;;;;;2.30;1.70;;;11.30;99.90;;;;;;4968766;28;20471;-48
2024/03/11 09:06:10;;;;;;;2.20;1.77;;;11.30;99.90;;;;;;4962419;28;20470;-47
2024/03/11 09:08:44;;;;;;;2.50;1.30;;;11.30;99.90;;;;;;4961129;28;20451;-48
2024/03/11 09:11:13;;;;;;;2.37;1.47;;;11.30;99.90;;;;;;4969253;28;20478;-47
2024/03/11 09:13:44;;;;;;;1.87;1.70;;;11.30;99.90;;;;;;4964412;28;20455;-47
2024/03/11 09:16:12;;;;;;;2.60;1.57;;;11.30;99.90;;;;;;4966036;28;20469;-46
2024/03/11 09:18:41;;;;;;;2.10;1.60;;;11.30;99.90;;;;;;4973721;28;20922;-47
2024/03/11 09:21:09;;;;;;;2.50;1.70;;;11.30;99.90;;;;;;4973456;28;20456;-47
2024/03/11 09:23:37;;;;;;;2.60;1.70;;;11.30;99.90;;;;;;4969942;28;20963;-47
2024/03/11 09:26:17;;;;;;;2.07;1.37;;;11.30;99.90;;;;;;4963654;28;21055;-48
2024/03/11 09:28:54;;;;;;;2.73;2.20;;;11.30;99.90;;;;;;4974765;28;20870;-49
2024/03/11 09:31:29;;;;;;;2.30;1.43;;;11.30;99.90;;;;;;4968385;28;20450;-48
2024/03/11 09:34:07;;;;;;;2.60;1.93;;;11.30;99.90;;;;;;4963530;28;20533;-50
2024/03/11 09:36:46;;;;;;;2.03;1.60;;;11.30;99.90;;;;;;4963503;28;20480;-48
2024/03/11 09:39:29;;;;;;;2.03;1.57;;;11.30;99.90;;;;;;4962493;28;20445;-48
2024/03/11 09:42:19;;;;;;;2.07;1.67;;;11.30;99.90;;;;;;4968027;28;20472;-50
2024/03/11 09:44:48;;;;;;;2.40;1.70;;;11.30;99.90;;;;;;4972437;28;20571;-49
2024/03/11 09:47:17;;;;;;;2.00;1.57;;;11.30;99.90;;;;;;4972863;28;21085;-46
2024/03/11 09:49:45;;;;;;;1.90;1.40;;;11.30;99.90;;;;;;4964193;28;20446;-47
2024/03/11 09:52:14;;;;;;;2.43;1.67;;;11.30;99.90;;;;;;4963890;28;20451;-49
2024/03/11 09:54:44;;;;;;;1.83;1.30;;;11.30;99.90;;;;;;4962171;28;20475;-49
2024/03/11 09:57:18;;;;;;;2.50;1.37;;;11.30;99.90;;;;;;4964151;28;20478;-46
2024/03/11 09:59:49;;;;;;;2.33;1.57;;;11.30;99.90;;;;;;4964205;28;20578;-47
2024/03/11 10:02:20;;;;;;;1.87;1.17;;;11.30;99.90;;;;;;4973759;28;20454;-47
2024/03/11 10:04:51;;;;;;;1.80;1.27;;;11.30;99.90;;;;;;4962060;28;20483;-47
2024/03/11 10:07:19;;;;;;;2.20;1.70;;;11.30;99.90;;;;;;4961011;28;20430;-47
2024/03/11 10:09:48;;;;;;;1.83;1.57;;;11.30;99.90;;;;;;4964134;28;21154;-49
2024/03/11 10:12:21;;;;;;;2.47;1.63;;;11.30;99.90;;;;;;4975870;28;20444;-47
2024/03/11 10:14:52;;;;;;;1.70;1.40;;;11.30;99.90;;;;;;4974351;28;20450;-46
2024/03/11 10:17:21;;;;;;;2.13;1.30;;;11.30;99.90;;;;;;4959367;28;20477;-47
2024/03/11 10:19:54;;;;;;;2.87;1.60;;;11.30;99.90;;;;;;4960110;28;20458;-47
2024/03/11 10:22:23;;;;;;;1.97;1.53;;;11.20;99.90;;;;;;4968992;28;21628;-46
2024/03/11 10:24:54;;;;;;;2.87;1.90;;;11.20;99.90;;;;;;4964943;28;20560;-48
2024/03/11 10:27:28;;;;;;;2.40;1.57;;;11.30;99.90;;;;;;4964324;28;20451;-47
2024/03/11 10:29:56;;;;;;;2.20;1.60;;;11.30;99.90;;;;;;4962106;28;20437;-47
2024/03/11 10:32:36;;;;;;;1.80;1.60;;;11.20;99.90;;;;;;4946853;28;20432;-47
2024/03/11 10:35:09;;;;;;;3.03;1.70;;;11.20;99.90;;;;;;4965429;28;20470;-46
2024/03/11 10:37:38;;;;;;;2.20;1.60;;;11.20;99.90;;;;;;4967921;28;20535;-48
2024/03/11 10:40:10;;;;;;;3.20;1.40;;;11.20;99.90;;;;;;4972772;28;20812;-46
2024/03/11 10:42:40;;;;;;;1.67;1.20;;;11.20;99.90;;;;;;4963502;28;20445;-47
2024/03/11 10:45:14;;;;;;;3.97;1.57;;;11.20;99.90;;;;;;4964153;28;20483;-46
2024/03/11 10:47:44;;;;;;;2.20;1.67;;;11.20;99.90;;;;;;4967456;28;20440;-47
2024/03/11 10:50:14;;;;;;;2.47;1.67;;;11.20;99.90;;;;;;4965080;28;21010;-47
2024/03/11 10:52:43;;;;;;;1.70;1.30;;;11.20;99.90;;;;;;4950160;28;20433;-47
2024/03/11 10:55:12;;;;;;;2.07;1.63;;;11.20;99.90;;;;;;4959788;28;20457;-47
2024/03/11 10:57:46;;;;;;;2.60;1.53;;;11.20;99.90;;;;;;4957802;28;20450;-47
2024/03/11 11:00:22;;;;;;;3.00;1.57;;;11.20;99.90;;;;;;4957314;28;20450;-48
2024/03/11 11:02:57;;;;;;;2.17;1.67;;;11.20;99.90;;;;;;4946061;28;20438;-47
2024/03/11 11:05:32;;;;;;;1.60;1.30;;;11.20;99.90;;;;;;4956564;28;20498;-47
2024/03/11 11:08:02;;;;;;;2.00;1.40;;;11.20;99.90;;;;;;4965318;28;20468;-46
2024/03/11 11:10:35;;;;;;;2.60;1.60;;;11.20;99.90;;;;;;4957857;28;20841;-47
2024/03/11 11:13:06;;;;;;;1.70;1.23;;;11.20;99.90;;;;;;4967262;28;20523;-48
2024/03/11 11:15:36;;;;;;;1.80;1.40;;;11.20;99.90;;;;;;4965363;28;20470;-47
2024/03/11 11:18:09;;;;;;;2.03;1.33;;;11.20;99.90;;;;;;4964199;28;20533;-48
2024/03/11 11:20:38;;;;;;;2.53;1.60;;;11.20;99.90;;;;;;4959894;28;20438;-47
2024/03/11 11:23:10;;;;;;;1.90;1.70;;;11.20;99.90;;;;;;4963049;28;20516;-48
2024/03/11 11:25:44;;;;;;;1.77;1.23;;;11.20;99.90;;;;;;4963907;28;20866;-46
2024/03/11 11:28:26;;;;;;;1.87;1.40;;;11.20;99.90;;;;;;4959342;28;20819;-47
2024/03/11 11:31:25;;;;;;;2.90;1.73;;;11.20;99.90;;;;;;4961290;28;20442;-47
2024/03/11 11:33:54;;;;;;;1.73;1.43;;;11.20;99.90;;;;;;4967584;28;20498;-46
2024/03/11 11:36:57;;;;;;;2.70;1.27;;;11.20;99.90;;;;;;4964450;28;20520;-46
2024/03/11 11:39:33;;;;;;;2.27;1.80;;;11.20;99.90;;;;;;4962088;28;20427;-46
2024/03/11 11:42:06;;;;;;;2.43;1.77;;;11.20;99.90;;;;;;4966977;28;20885;-47
2024/03/11 11:44:56;;;;;;;2.10;1.27;;;11.10;99.90;;;;;;4963673;28;20971;-47
2024/03/11 11:47:25;;;;;;;1.97;1.17;;;11.20;99.90;;;;;;4964975;28;20465;-48
2024/03/11 11:49:54;;;;;;;1.50;1.00;;;11.20;99.90;;;;;;4961475;28;20832;-46
2024/03/11 11:52:24;;;;;;;2.03;1.67;;;11.10;99.90;;;;;;4972100;28;20508;-48
2024/03/11 11:54:56;;;;;;;1.60;1.40;;;11.20;99.90;;;;;;4962824;28;20473;-47
2024/03/11 11:57:25;;;;;;;2.07;1.50;;;11.10;99.90;;;;;;4960823;28;20458;-51
2024/03/11 11:59:59;;;;;;;1.80;1.47;;;11.10;99.90;;;;;;4964436;28;20948;-46
2024/03/11 12:02:29;;;;;;;2.10;1.37;;;11.20;99.90;;;;;;4968460;28;20858;-47
2024/03/11 12:05:00;;;;;;;2.13;1.40;;;11.20;99.90;;;;;;4969115;28;20897;-47
2024/03/11 12:07:29;;;;;;;1.90;1.20;;;11.20;99.90;;;;;;4957877;28;20474;-47
2024/03/11 12:10:02;;;;;;;2.83;1.17;;;11.10;99.90;;;;;;4956094;28;20494;-46
2024/03/11 12:12:32;;;;;;;2.20;1.40;;;11.20;99.90;;;;;;4968640;28;20440;-48
2024/03/11 12:15:04;;;;;;;1.83;1.43;;;11.20;99.90;;;;;;4960860;28;20480;-47
2024/03/11 12:17:33;;;;;;;1.90;1.47;;;11.20;99.90;;;;;;4961056;28;20521;-47
2024/03/11 12:20:15;;;;;;;1.63;1.20;;;11.20;99.90;;;;;;4964221;28;20463;-46
2024/03/11 12:22:44;;;;;;;2.57;1.30;;;11.20;99.90;;;;;;4970793;28;20454;-47
2024/03/11 12:25:13;;;;;;;1.87;1.37;;;11.10;99.90;;;;;;4966390;28;20477;-46
2024/03/11 12:27:44;;;;;;;1.70;1.40;;;11.10;99.90;;;;;;4961031;28;20452;-47
2024/03/11 12:30:18;;;;;;;2.60;1.63;;;11.20;99.90;;;;;;4951869;28;20457;-47
2024/03/11 12:32:56;;;;;;;2.23;1.50;;;11.10;99.90;;;;;;4964697;28;20922;-47
2024/03/11 12:35:27;;;;;;;1.57;1.13;;;11.10;99.90;;;;;;4968129;28;20453;-46
2024/03/11 12:37:58;;;;;;;1.70;1.13;;;11.10;99.90;;;;;;4962044;28;20448;-46
2024/03/11 12:40:29;;;;;;;1.80;1.40;;;11.10;99.90;;;;;;4965156;28;20926;-48
2024/03/11 12:42:57;;;;;;;1.80;1.30;;;11.10;99.90;;;;;;4962974;28;21023;-48
2024/03/11 12:45:45;;;;;;;1.77;1.13;;;11.10;99.90;;;;;;4972535;28;20472;-45
2024/03/11 12:48:14;;;;;;;3.13;1.47;;;11.10;99.90;;;;;;4949706;28;20460;-47
2024/03/11 12:50:43;;;;;;;1.50;1.20;;;11.10;99.90;;;;;;4970810;28;20436;-47
2024/03/11 12:53:12;;;;;;;1.73;1.40;;;11.10;99.90;;;;;;4964992;28;20884;-49
2024/03/11 12:55:42;;;;;;;1.87;1.20;;;11.10;99.90;;;;;;4970236;28;20465;-48
2024/03/11 12:58:15;;;;;;;1.70;1.20;;;11.10;99.90;;;;;;4963681;28;20431;-47
2024/03/11 13:00:46;;;;;;;1.50;1.20;;;11.10;99.90;;;;;;4968310;28;20454;-46
2024/03/11 13:03:19;;;;;;;1.97;1.17;;;11.10;99.90;;;;;;4965372;28;20502;-47
2024/03/11 13:05:59;;;;;;;1.50;1.10;;;11.10;99.90;;;;;;4964989;28;20484;-51
2024/03/11 13:08:29;;;;;;;2.10;1.10;;;11.10;99.90;;;;;;4962767;28;20934;-47